sensor_id;sensor_type;location;lat;lon;timestamp;temperature;humidity
67799;SHT30;54596;43.216;27.904;2023-07-31T00:01:18;22.10;87.94
67799;SHT30;54596;43.216;27.904;2023-07-31T00:03:45;22.03;87.98
67799;SHT30;54596;43.216;27.904;2023-07-31T00:06:11;22.03;88.08
67799;SHT30;54596;43.216;27.904;2023-07-31T00:08:37;21.98;88.12
67799;SHT30;54596;43.216;27.904;2023-07-31T00:11:02;21.89;88.29
67799;SHT30;54596;43.216;27.904;2023-07-31T00:13:28;21.92;88.26
67799;SHT30;54596;43.216;27.904;2023-07-31T00:15:53;21.95;88.15
67799;SHT30;54596;43.216;27.904;2023-07-31T00:18:19;21.92;88.17
67799;SHT30;54596;43.216;27.904;2023-07-31T00:20:44;21.86;88.22
67799;SHT30;54596;43.216;27.904;2023-07-31T00:23:10;21.82;88.32
67799;SHT30;54596;43.216;27.904;2023-07-31T00:25:35;21.85;88.19
67799;SHT30;54596;43.216;27.904;2023-07-31T00:28:01;21.88;88.22
67799;SHT30;54596;43.216;27.904;2023-07-31T00:30:26;21.88;88.22
67799;SHT30;54596;43.216;27.904;2023-07-31T00:32:52;21.92;88.26
67799;SHT30;54596;43.216;27.904;2023-07-31T00:35:18;21.88;88.32
67799;SHT30;54596;43.216;27.904;2023-07-31T00:37:43;21.91;88.37
67799;SHT30;54596;43.216;27.904;2023-07-31T00:40:09;21.88;88.38
67799;SHT30;54596;43.216;27.904;2023-07-31T00:42:34;21.85;88.50
67799;SHT30;54596;43.216;27.904;2023-07-31T00:45:00;21.88;88.66
67799;SHT30;54596;43.216;27.904;2023-07-31T00:47:26;21.86;88.78
67799;SHT30;54596;43.216;27.904;2023-07-31T00:49:52;21.79;88.94
67799;SHT30;54596;43.216;27.904;2023-07-31T00:52:18;21.82;89.01
67799;SHT30;54596;43.216;27.904;2023-07-31T00:54:44;21.78;89.13
67799;SHT30;54596;43.216;27.904;2023-07-31T00:57:10;21.77;89.33
67799;SHT30;54596;43.216;27.904;2023-07-31T00:59:35;21.74;89.47
67799;SHT30;54596;43.216;27.904;2023-07-31T01:02:01;21.73;89.55
67799;SHT30;54596;43.216;27.904;2023-07-31T01:04:27;21.65;89.77
67799;SHT30;54596;43.216;27.904;2023-07-31T01:07:04;21.59;89.98
67799;SHT30;54596;43.216;27.904;2023-07-31T01:09:36;21.61;90.01
67799;SHT30;54596;43.216;27.904;2023-07-31T01:12:06;21.59;90.09
67799;SHT30;54596;43.216;27.904;2023-07-31T01:14:32;21.53;90.15
67799;SHT30;54596;43.216;27.904;2023-07-31T01:16:57;21.51;90.21
67799;SHT30;54596;43.216;27.904;2023-07-31T01:19:24;21.50;90.31
67799;SHT30;54596;43.216;27.904;2023-07-31T01:24:59;21.43;90.55
67799;SHT30;54596;43.216;27.904;2023-07-31T01:27:30;21.37;90.67
67799;SHT30;54596;43.216;27.904;2023-07-31T01:30:05;21.29;90.74
67799;SHT30;54596;43.216;27.904;2023-07-31T01:32:36;21.26;90.71
67799;SHT30;54596;43.216;27.904;2023-07-31T01:35:05;21.24;90.76
67799;SHT30;54596;43.216;27.904;2023-07-31T01:37:30;21.09;90.93
67799;SHT30;54596;43.216;27.904;2023-07-31T01:39:56;21.14;90.87
67799;SHT30;54596;43.216;27.904;2023-07-31T01:42:21;21.10;90.87
67799;SHT30;54596;43.216;27.904;2023-07-31T01:44:47;21.10;90.85
67799;SHT30;54596;43.216;27.904;2023-07-31T01:47:12;21.10;90.77
67799;SHT30;54596;43.216;27.904;2023-07-31T01:49:38;21.09;90.79
67799;SHT30;54596;43.216;27.904;2023-07-31T01:52:03;21.12;90.73
67799;SHT30;54596;43.216;27.904;2023-07-31T01:54:29;21.12;90.77
67799;SHT30;54596;43.216;27.904;2023-07-31T01:56:54;21.02;90.93
67799;SHT30;54596;43.216;27.904;2023-07-31T01:59:20;21.07;90.86
67799;SHT30;54596;43.216;27.904;2023-07-31T02:01:45;21.07;90.79
67799;SHT30;54596;43.216;27.904;2023-07-31T02:04:11;20.95;91.12
67799;SHT30;54596;43.216;27.904;2023-07-31T02:06:36;20.92;91.13
67799;SHT30;54596;43.216;27.904;2023-07-31T02:09:02;20.89;90.96
67799;SHT30;54596;43.216;27.904;2023-07-31T02:11:28;20.85;90.89
67799;SHT30;54596;43.216;27.904;2023-07-31T02:13:54;20.78;90.97
67799;SHT30;54596;43.216;27.904;2023-07-31T02:16:19;20.78;90.98
67799;SHT30;54596;43.216;27.904;2023-07-31T02:18:45;20.81;90.88
67799;SHT30;54596;43.216;27.904;2023-07-31T02:21:10;20.82;90.80
67799;SHT30;54596;43.216;27.904;2023-07-31T02:23:36;20.77;90.61
67799;SHT30;54596;43.216;27.904;2023-07-31T02:26:01;20.75;90.62
67799;SHT30;54596;43.216;27.904;2023-07-31T02:28:26;20.75;90.60
67799;SHT30;54596;43.216;27.904;2023-07-31T02:30:52;20.71;90.57
67799;SHT30;54596;43.216;27.904;2023-07-31T02:33:17;20.72;90.66
67799;SHT30;54596;43.216;27.904;2023-07-31T02:35:43;20.74;90.67
67799;SHT30;54596;43.216;27.904;2023-07-31T02:38:08;20.69;90.74
67799;SHT30;54596;43.216;27.904;2023-07-31T02:40:34;20.72;90.76
67799;SHT30;54596;43.216;27.904;2023-07-31T02:42:59;20.71;90.71
67799;SHT30;54596;43.216;27.904;2023-07-31T02:45:25;20.74;90.77
67799;SHT30;54596;43.216;27.904;2023-07-31T02:47:51;20.57;91.09
67799;SHT30;54596;43.216;27.904;2023-07-31T02:50:16;20.55;91.22
67799;SHT30;54596;43.216;27.904;2023-07-31T02:52:42;20.54;91.31
67799;SHT30;54596;43.216;27.904;2023-07-31T02:55:07;20.58;91.23
67799;SHT30;54596;43.216;27.904;2023-07-31T02:57:33;20.64;91.12
67799;SHT30;54596;43.216;27.904;2023-07-31T02:59:58;20.68;91.11
67799;SHT30;54596;43.216;27.904;2023-07-31T03:02:24;20.72;91.00
67799;SHT30;54596;43.216;27.904;2023-07-31T03:04:49;20.81;90.86
67799;SHT30;54596;43.216;27.904;2023-07-31T03:07:15;20.78;90.77
67799;SHT30;54596;43.216;27.904;2023-07-31T03:09:40;20.85;90.69
67799;SHT30;54596;43.216;27.904;2023-07-31T03:12:06;20.88;90.72
67799;SHT30;54596;43.216;27.904;2023-07-31T03:14:31;20.96;90.56
67799;SHT30;54596;43.216;27.904;2023-07-31T03:16:57;21.02;90.44
67799;SHT30;54596;43.216;27.904;2023-07-31T03:19:22;21.06;90.29
67799;SHT30;54596;43.216;27.904;2023-07-31T03:21:48;21.07;90.27
67799;SHT30;54596;43.216;27.904;2023-07-31T03:24:13;21.16;90.17
67799;SHT30;54596;43.216;27.904;2023-07-31T03:26:39;21.23;90.03
67799;SHT30;54596;43.216;27.904;2023-07-31T03:29:07;21.22;90.10
67799;SHT30;54596;43.216;27.904;2023-07-31T03:31:32;21.31;89.92
67799;SHT30;54596;43.216;27.904;2023-07-31T03:33:58;21.37;89.74
67799;SHT30;54596;43.216;27.904;2023-07-31T03:36:23;21.44;89.60
67799;SHT30;54596;43.216;27.904;2023-07-31T03:38:49;21.43;89.57
67799;SHT30;54596;43.216;27.904;2023-07-31T03:41:14;21.47;89.54
67799;SHT30;54596;43.216;27.904;2023-07-31T03:43:40;21.47;89.47
67799;SHT30;54596;43.216;27.904;2023-07-31T03:46:05;21.44;89.41
67799;SHT30;54596;43.216;27.904;2023-07-31T03:48:31;21.41;89.48
67799;SHT30;54596;43.216;27.904;2023-07-31T03:50:56;21.39;89.59
67799;SHT30;54596;43.216;27.904;2023-07-31T03:53:22;21.44;89.52
67799;SHT30;54596;43.216;27.904;2023-07-31T03:55:47;21.44;89.59
67799;SHT30;54596;43.216;27.904;2023-07-31T03:58:13;21.47;89.59
67799;SHT30;54596;43.216;27.904;2023-07-31T04:00:40;21.43;89.83
67799;SHT30;54596;43.216;27.904;2023-07-31T04:03:05;21.50;89.70
67799;SHT30;54596;43.216;27.904;2023-07-31T04:05:32;21.55;89.63
67799;SHT30;54596;43.216;27.904;2023-07-31T04:07:57;21.57;89.52
67799;SHT30;54596;43.216;27.904;2023-07-31T04:10:23;21.59;89.41
67799;SHT30;54596;43.216;27.904;2023-07-31T04:12:48;21.69;89.29
67799;SHT30;54596;43.216;27.904;2023-07-31T04:15:14;21.71;89.30
67799;SHT30;54596;43.216;27.904;2023-07-31T04:17:40;21.79;89.07
67799;SHT30;54596;43.216;27.904;2023-07-31T04:20:05;21.81;88.98
67799;SHT30;54596;43.216;27.904;2023-07-31T04:22:32;21.91;88.76
67799;SHT30;54596;43.216;27.904;2023-07-31T04:24:57;22.02;88.37
67799;SHT30;54596;43.216;27.904;2023-07-31T04:27:22;22.14;88.15
67799;SHT30;54596;43.216;27.904;2023-07-31T04:29:48;22.33;87.78
67799;SHT30;54596;43.216;27.904;2023-07-31T04:32:13;22.43;87.34
67799;SHT30;54596;43.216;27.904;2023-07-31T04:34:41;22.40;87.30
67799;SHT30;54596;43.216;27.904;2023-07-31T04:37:07;22.44;87.22
67799;SHT30;54596;43.216;27.904;2023-07-31T04:39:32;22.45;87.25
67799;SHT30;54596;43.216;27.904;2023-07-31T04:41:58;22.39;87.34
67799;SHT30;54596;43.216;27.904;2023-07-31T04:44:23;22.27;87.50
67799;SHT30;54596;43.216;27.904;2023-07-31T04:46:49;22.21;87.67
67799;SHT30;54596;43.216;27.904;2023-07-31T04:49:14;22.23;87.63
67799;SHT30;54596;43.216;27.904;2023-07-31T04:51:40;22.30;87.76
67799;SHT30;54596;43.216;27.904;2023-07-31T04:54:05;22.45;87.50
67799;SHT30;54596;43.216;27.904;2023-07-31T04:56:31;22.62;87.10
67799;SHT30;54596;43.216;27.904;2023-07-31T04:58:56;22.73;87.06
67799;SHT30;54596;43.216;27.904;2023-07-31T05:01:21;23.13;86.13
67799;SHT30;54596;43.216;27.904;2023-07-31T05:03:47;22.92;86.46
67799;SHT30;54596;43.216;27.904;2023-07-31T05:06:12;22.98;86.46
67799;SHT30;54596;43.216;27.904;2023-07-31T05:08:40;23.09;86.22
67799;SHT30;54596;43.216;27.904;2023-07-31T05:11:05;23.28;85.66
67799;SHT30;54596;43.216;27.904;2023-07-31T05:13:31;23.48;84.90
67799;SHT30;54596;43.216;27.904;2023-07-31T05:15:56;23.61;84.62
67799;SHT30;54596;43.216;27.904;2023-07-31T05:18:22;23.86;83.88
67799;SHT30;54596;43.216;27.904;2023-07-31T05:20:47;24.14;83.23
67799;SHT30;54596;43.216;27.904;2023-07-31T05:23:13;24.45;82.40
67799;SHT30;54596;43.216;27.904;2023-07-31T05:25:38;24.81;81.65
67799;SHT30;54596;43.216;27.904;2023-07-31T05:28:04;25.00;80.75
67799;SHT30;54596;43.216;27.904;2023-07-31T05:30:30;24.95;80.45
67799;SHT30;54596;43.216;27.904;2023-07-31T05:32:56;25.07;80.15
67799;SHT30;54596;43.216;27.904;2023-07-31T05:35:21;24.93;80.32
67799;SHT30;54596;43.216;27.904;2023-07-31T05:37:47;26.45;77.72
67799;SHT30;54596;43.216;27.904;2023-07-31T05:40:12;30.51;67.38
67799;SHT30;54596;43.216;27.904;2023-07-31T05:42:38;31.30;64.77
67799;SHT30;54596;43.216;27.904;2023-07-31T05:45:05;29.21;68.47
67799;SHT30;54596;43.216;27.904;2023-07-31T05:47:31;29.88;67.44
67799;SHT30;54596;43.216;27.904;2023-07-31T05:49:56;29.80;66.92
67799;SHT30;54596;43.216;27.904;2023-07-31T05:52:22;30.85;65.38
67799;SHT30;54596;43.216;27.904;2023-07-31T05:54:47;31.81;63.11
67799;SHT30;54596;43.216;27.904;2023-07-31T05:57:13;32.96;60.33
67799;SHT30;54596;43.216;27.904;2023-07-31T05:59:38;32.28;60.76
67799;SHT30;54596;43.216;27.904;2023-07-31T06:02:04;32.16;61.08
67799;SHT30;54596;43.216;27.904;2023-07-31T06:04:29;31.23;62.78
67799;SHT30;54596;43.216;27.904;2023-07-31T06:06:56;29.95;65.74
67799;SHT30;54596;43.216;27.904;2023-07-31T06:09:21;30.79;64.25
67799;SHT30;54596;43.216;27.904;2023-07-31T06:11:47;32.69;60.33
67799;SHT30;54596;43.216;27.904;2023-07-31T06:14:12;32.76;59.82
67799;SHT30;54596;43.216;27.904;2023-07-31T06:16:38;32.99;59.15
67799;SHT30;54596;43.216;27.904;2023-07-31T06:19:03;31.72;61.43
67799;SHT30;54596;43.216;27.904;2023-07-31T06:21:29;32.82;58.26
67799;SHT30;54596;43.216;27.904;2023-07-31T06:23:55;32.72;58.90
67799;SHT30;54596;43.216;27.904;2023-07-31T06:26:20;33.29;57.65
67799;SHT30;54596;43.216;27.904;2023-07-31T06:28:46;33.17;57.85
67799;SHT30;54596;43.216;27.904;2023-07-31T06:31:11;33.04;58.12
67799;SHT30;54596;43.216;27.904;2023-07-31T06:33:37;32.47;58.29
67799;SHT30;54596;43.216;27.904;2023-07-31T06:36:02;32.38;58.58
67799;SHT30;54596;43.216;27.904;2023-07-31T06:38:28;32.19;59.06
67799;SHT30;54596;43.216;27.904;2023-07-31T06:40:54;32.10;58.83
67799;SHT30;54596;43.216;27.904;2023-07-31T06:43:19;32.28;58.12
67799;SHT30;54596;43.216;27.904;2023-07-31T06:45:45;31.75;58.85
67799;SHT30;54596;43.216;27.904;2023-07-31T06:48:11;31.34;59.42
67799;SHT30;54596;43.216;27.904;2023-07-31T06:50:37;31.81;58.95
67799;SHT30;54596;43.216;27.904;2023-07-31T06:53:02;31.72;59.07
67799;SHT30;54596;43.216;27.904;2023-07-31T06:55:28;31.90;58.82
67799;SHT30;54596;43.216;27.904;2023-07-31T06:57:54;32.64;57.25
67799;SHT30;54596;43.216;27.904;2023-07-31T07:00:21;33.55;55.63
67799;SHT30;54596;43.216;27.904;2023-07-31T07:02:47;34.15;54.20
67799;SHT30;54596;43.216;27.904;2023-07-31T07:05:13;35.10;53.01
67799;SHT30;54596;43.216;27.904;2023-07-31T07:07:38;35.92;51.71
67799;SHT30;54596;43.216;27.904;2023-07-31T07:10:04;36.36;50.51
67799;SHT30;54596;43.216;27.904;2023-07-31T07:12:31;36.22;50.55
67799;SHT30;54596;43.216;27.904;2023-07-31T07:14:57;36.47;49.96
67799;SHT30;54596;43.216;27.904;2023-07-31T07:17:23;36.34;49.83
67799;SHT30;54596;43.216;27.904;2023-07-31T07:19:49;36.44;49.69
67799;SHT30;54596;43.216;27.904;2023-07-31T07:22:14;35.46;50.27
67799;SHT30;54596;43.216;27.904;2023-07-31T07:24:40;36.44;49.37
67799;SHT30;54596;43.216;27.904;2023-07-31T07:27:06;37.03;48.39
67799;SHT30;54596;43.216;27.904;2023-07-31T07:29:33;37.58;47.50
67799;SHT30;54596;43.216;27.904;2023-07-31T07:31:58;37.60;47.99
67799;SHT30;54596;43.216;27.904;2023-07-31T07:34:26;37.99;47.14
67799;SHT30;54596;43.216;27.904;2023-07-31T07:36:51;38.19;46.72
67799;SHT30;54596;43.216;27.904;2023-07-31T07:39:17;38.26;46.50
67799;SHT30;54596;43.216;27.904;2023-07-31T07:41:42;38.12;46.70
67799;SHT30;54596;43.216;27.904;2023-07-31T07:44:08;38.06;46.81
67799;SHT30;54596;43.216;27.904;2023-07-31T07:46:33;38.34;47.07
67799;SHT30;54596;43.216;27.904;2023-07-31T07:48:59;38.46;46.99
67799;SHT30;54596;43.216;27.904;2023-07-31T07:51:25;38.74;46.63
67799;SHT30;54596;43.216;27.904;2023-07-31T07:53:50;37.40;48.28
67799;SHT30;54596;43.216;27.904;2023-07-31T07:56:16;38.13;46.81
67799;SHT30;54596;43.216;27.904;2023-07-31T07:58:41;37.99;46.94
67799;SHT30;54596;43.216;27.904;2023-07-31T08:01:07;37.06;48.14
67799;SHT30;54596;43.216;27.904;2023-07-31T08:03:32;36.77;48.88
67799;SHT30;54596;43.216;27.904;2023-07-31T08:05:59;35.44;51.41
67799;SHT30;54596;43.216;27.904;2023-07-31T08:08:24;34.06;53.59
67799;SHT30;54596;43.216;27.904;2023-07-31T08:10:50;33.57;54.67
67799;SHT30;54596;43.216;27.904;2023-07-31T08:13:15;34.86;52.87
67799;SHT30;54596;43.216;27.904;2023-07-31T08:15:41;34.23;53.60
67799;SHT30;54596;43.216;27.904;2023-07-31T08:18:08;34.03;53.75
67799;SHT30;54596;43.216;27.904;2023-07-31T08:20:33;33.58;54.72
67799;SHT30;54596;43.216;27.904;2023-07-31T08:22:59;33.10;55.87
67799;SHT30;54596;43.216;27.904;2023-07-31T08:25:25;32.42;56.70
67799;SHT30;54596;43.216;27.904;2023-07-31T08:27:50;32.65;56.81
67799;SHT30;54596;43.216;27.904;2023-07-31T08:30:18;33.75;55.08
67799;SHT30;54596;43.216;27.904;2023-07-31T08:32:44;34.57;53.25
67799;SHT30;54596;43.216;27.904;2023-07-31T08:35:10;34.54;53.25
67799;SHT30;54596;43.216;27.904;2023-07-31T08:37:35;34.37;53.57
67799;SHT30;54596;43.216;27.904;2023-07-31T08:40:01;34.69;53.19
67799;SHT30;54596;43.216;27.904;2023-07-31T08:42:27;33.72;53.76
67799;SHT30;54596;43.216;27.904;2023-07-31T08:44:53;33.45;53.74
67799;SHT30;54596;43.216;27.904;2023-07-31T08:47:20;33.23;53.95
67799;SHT30;54596;43.216;27.904;2023-07-31T08:49:47;33.66;53.51
67799;SHT30;54596;43.216;27.904;2023-07-31T08:52:13;33.61;53.67
67799;SHT30;54596;43.216;27.904;2023-07-31T08:54:38;33.04;54.62
67799;SHT30;54596;43.216;27.904;2023-07-31T08:57:05;32.42;55.53
67799;SHT30;54596;43.216;27.904;2023-07-31T08:59:34;32.82;54.78
67799;SHT30;54596;43.216;27.904;2023-07-31T09:02:05;32.72;55.67
67799;SHT30;54596;43.216;27.904;2023-07-31T09:04:32;32.48;55.36
67799;SHT30;54596;43.216;27.904;2023-07-31T09:07:00;32.35;55.25
67799;SHT30;54596;43.216;27.904;2023-07-31T09:09:26;31.41;57.09
67799;SHT30;54596;43.216;27.904;2023-07-31T09:11:52;31.19;57.33
67799;SHT30;54596;43.216;27.904;2023-07-31T09:14:19;31.24;57.80
67799;SHT30;54596;43.216;27.904;2023-07-31T09:16:55;31.30;58.40
67799;SHT30;54596;43.216;27.904;2023-07-31T09:19:32;31.13;58.56
67799;SHT30;54596;43.216;27.904;2023-07-31T09:21:59;31.06;58.47
67799;SHT30;54596;43.216;27.904;2023-07-31T09:24:29;30.92;58.92
67799;SHT30;54596;43.216;27.904;2023-07-31T09:26:56;30.82;58.75
67799;SHT30;54596;43.216;27.904;2023-07-31T09:29:22;30.59;59.42
67799;SHT30;54596;43.216;27.904;2023-07-31T09:31:48;30.48;59.97
67799;SHT30;54596;43.216;27.904;2023-07-31T09:34:14;30.72;59.79
67799;SHT30;54596;43.216;27.904;2023-07-31T09:36:49;30.85;59.69
67799;SHT30;54596;43.216;27.904;2023-07-31T09:39:16;31.27;58.82
67799;SHT30;54596;43.216;27.904;2023-07-31T09:41:44;31.61;58.22
67799;SHT30;54596;43.216;27.904;2023-07-31T09:44:10;31.79;57.81
67799;SHT30;54596;43.216;27.904;2023-07-31T09:46:36;31.89;57.85
67799;SHT30;54596;43.216;27.904;2023-07-31T09:49:08;31.99;57.67
67799;SHT30;54596;43.216;27.904;2023-07-31T09:51:37;31.99;57.06
67799;SHT30;54596;43.216;27.904;2023-07-31T09:54:12;31.31;58.49
67799;SHT30;54596;43.216;27.904;2023-07-31T09:56:48;31.26;58.00
67799;SHT30;54596;43.216;27.904;2023-07-31T09:59:18;31.33;58.43
67799;SHT30;54596;43.216;27.904;2023-07-31T10:01:46;31.38;58.18
67799;SHT30;54596;43.216;27.904;2023-07-31T10:04:13;31.31;57.99
67799;SHT30;54596;43.216;27.904;2023-07-31T10:06:40;31.04;58.07
67799;SHT30;54596;43.216;27.904;2023-07-31T10:09:12;30.61;58.51
67799;SHT30;54596;43.216;27.904;2023-07-31T10:12:00;30.83;58.09
67799;SHT30;54596;43.216;27.904;2023-07-31T10:14:27;30.96;58.09
67799;SHT30;54596;43.216;27.904;2023-07-31T10:16:54;31.20;58.27
67799;SHT30;54596;43.216;27.904;2023-07-31T10:19:21;31.28;57.95
67799;SHT30;54596;43.216;27.904;2023-07-31T10:21:48;31.30;57.98
67799;SHT30;54596;43.216;27.904;2023-07-31T10:24:14;31.33;57.88
67799;SHT30;54596;43.216;27.904;2023-07-31T10:26:41;31.42;57.98
67799;SHT30;54596;43.216;27.904;2023-07-31T10:29:09;31.59;57.81
67799;SHT30;54596;43.216;27.904;2023-07-31T10:31:35;31.66;57.54
67799;SHT30;54596;43.216;27.904;2023-07-31T10:34:01;31.49;57.37
67799;SHT30;54596;43.216;27.904;2023-07-31T10:36:28;31.59;57.21
67799;SHT30;54596;43.216;27.904;2023-07-31T10:38:55;31.37;58.04
67799;SHT30;54596;43.216;27.904;2023-07-31T10:41:31;31.14;57.99
67799;SHT30;54596;43.216;27.904;2023-07-31T10:44:00;31.04;58.15
67799;SHT30;54596;43.216;27.904;2023-07-31T10:46:28;30.90;58.21
67799;SHT30;54596;43.216;27.904;2023-07-31T10:48:58;30.94;58.41
67799;SHT30;54596;43.216;27.904;2023-07-31T10:51:32;30.72;58.18
67799;SHT30;54596;43.216;27.904;2023-07-31T10:54:10;30.61;59.32
67799;SHT30;54596;43.216;27.904;2023-07-31T10:56:39;30.83;59.32
67799;SHT30;54596;43.216;27.904;2023-07-31T10:59:05;30.86;58.90
67799;SHT30;54596;43.216;27.904;2023-07-31T11:01:53;30.85;58.74
67799;SHT30;54596;43.216;27.904;2023-07-31T11:04:26;30.85;59.01
67799;SHT30;54596;43.216;27.904;2023-07-31T11:06:59;30.54;58.80
67799;SHT30;54596;43.216;27.904;2023-07-31T11:09:28;29.92;59.89
67799;SHT30;54596;43.216;27.904;2023-07-31T11:11:55;29.95;60.39
67799;SHT30;54596;43.216;27.904;2023-07-31T11:14:21;29.83;60.75
67799;SHT30;54596;43.216;27.904;2023-07-31T11:16:49;29.79;60.88
67799;SHT30;54596;43.216;27.904;2023-07-31T11:19:18;30.03;60.75
67799;SHT30;54596;43.216;27.904;2023-07-31T11:21:46;30.02;60.71
67799;SHT30;54596;43.216;27.904;2023-07-31T11:24:12;29.95;60.91
67799;SHT30;54596;43.216;27.904;2023-07-31T11:26:38;29.59;61.65
67799;SHT30;54596;43.216;27.904;2023-07-31T11:29:11;29.65;61.60
67799;SHT30;54596;43.216;27.904;2023-07-31T11:31:44;29.90;61.59
67799;SHT30;54596;43.216;27.904;2023-07-31T11:34:09;30.00;60.85
67799;SHT30;54596;43.216;27.904;2023-07-31T11:36:35;29.86;60.94
67799;SHT30;54596;43.216;27.904;2023-07-31T11:39:10;29.79;61.21
67799;SHT30;54596;43.216;27.904;2023-07-31T11:41:36;29.62;61.69
67799;SHT30;54596;43.216;27.904;2023-07-31T11:44:05;29.50;62.06
67799;SHT30;54596;43.216;27.904;2023-07-31T11:46:31;29.30;62.70
67799;SHT30;54596;43.216;27.904;2023-07-31T11:49:00;29.34;62.57
67799;SHT30;54596;43.216;27.904;2023-07-31T11:51:26;29.51;62.67
67799;SHT30;54596;43.216;27.904;2023-07-31T11:53:57;29.61;62.33
67799;SHT30;54596;43.216;27.904;2023-07-31T11:56:23;29.69;62.31
67799;SHT30;54596;43.216;27.904;2023-07-31T11:58:53;29.71;62.43
67799;SHT30;54596;43.216;27.904;2023-07-31T12:01:21;29.54;62.87
67799;SHT30;54596;43.216;27.904;2023-07-31T12:03:48;29.19;63.39
67799;SHT30;54596;43.216;27.904;2023-07-31T12:06:14;29.19;63.43
67799;SHT30;54596;43.216;27.904;2023-07-31T12:08:40;29.13;63.62
67799;SHT30;54596;43.216;27.904;2023-07-31T12:11:07;28.96;64.22
67799;SHT30;54596;43.216;27.904;2023-07-31T12:13:35;28.86;64.51
67799;SHT30;54596;43.216;27.904;2023-07-31T12:16:02;28.74;64.93
67799;SHT30;54596;43.216;27.904;2023-07-31T12:18:30;28.66;65.32
67799;SHT30;54596;43.216;27.904;2023-07-31T12:20:59;28.36;65.92
67799;SHT30;54596;43.216;27.904;2023-07-31T12:23:30;28.38;66.19
67799;SHT30;54596;43.216;27.904;2023-07-31T12:26:19;28.45;66.84
67799;SHT30;54596;43.216;27.904;2023-07-31T12:28:47;28.49;67.11
67799;SHT30;54596;43.216;27.904;2023-07-31T12:31:20;28.55;67.94
67799;SHT30;54596;43.216;27.904;2023-07-31T12:33:48;28.52;68.15
67799;SHT30;54596;43.216;27.904;2023-07-31T12:36:17;28.44;68.84
67799;SHT30;54596;43.216;27.904;2023-07-31T12:38:43;28.38;69.42
67799;SHT30;54596;43.216;27.904;2023-07-31T12:41:09;28.36;69.65
67799;SHT30;54596;43.216;27.904;2023-07-31T12:43:36;28.36;69.27
67799;SHT30;54596;43.216;27.904;2023-07-31T12:46:02;28.33;69.46
67799;SHT30;54596;43.216;27.904;2023-07-31T12:48:27;28.18;69.31
67799;SHT30;54596;43.216;27.904;2023-07-31T12:50:53;28.10;69.05
67799;SHT30;54596;43.216;27.904;2023-07-31T12:53:18;27.84;69.63
67799;SHT30;54596;43.216;27.904;2023-07-31T12:55:44;27.90;69.73
67799;SHT30;54596;43.216;27.904;2023-07-31T12:58:09;28.03;70.03
67799;SHT30;54596;43.216;27.904;2023-07-31T13:00:35;27.92;68.13
67799;SHT30;54596;43.216;27.904;2023-07-31T13:03:01;27.84;67.19
67799;SHT30;54596;43.216;27.904;2023-07-31T13:05:27;28.05;67.21
67799;SHT30;54596;43.216;27.904;2023-07-31T13:07:53;28.05;67.12
67799;SHT30;54596;43.216;27.904;2023-07-31T13:10:19;27.82;67.11
67799;SHT30;54596;43.216;27.904;2023-07-31T13:12:45;27.81;67.41
67799;SHT30;54596;43.216;27.904;2023-07-31T13:15:12;27.82;67.38
67799;SHT30;54596;43.216;27.904;2023-07-31T13:17:38;27.92;67.40
67799;SHT30;54596;43.216;27.904;2023-07-31T13:20:04;28.02;67.55
67799;SHT30;54596;43.216;27.904;2023-07-31T13:22:30;28.00;67.76
67799;SHT30;54596;43.216;27.904;2023-07-31T13:24:55;28.16;67.64
67799;SHT30;54596;43.216;27.904;2023-07-31T13:27:21;28.23;67.19
67799;SHT30;54596;43.216;27.904;2023-07-31T13:29:50;28.31;67.29
67799;SHT30;54596;43.216;27.904;2023-07-31T13:32:17;28.40;66.51
67799;SHT30;54596;43.216;27.904;2023-07-31T13:34:44;28.43;66.35
67799;SHT30;54596;43.216;27.904;2023-07-31T13:37:10;28.38;66.51
67799;SHT30;54596;43.216;27.904;2023-07-31T13:39:35;28.24;66.63
67799;SHT30;54596;43.216;27.904;2023-07-31T13:42:03;28.24;67.00
67799;SHT30;54596;43.216;27.904;2023-07-31T13:44:28;28.23;67.42
67799;SHT30;54596;43.216;27.904;2023-07-31T13:46:54;28.34;67.23
67799;SHT30;54596;43.216;27.904;2023-07-31T13:49:19;28.36;67.42
67799;SHT30;54596;43.216;27.904;2023-07-31T13:51:45;28.30;67.62
67799;SHT30;54596;43.216;27.904;2023-07-31T13:54:11;28.28;67.66
67799;SHT30;54596;43.216;27.904;2023-07-31T13:56:37;28.24;67.43
67799;SHT30;54596;43.216;27.904;2023-07-31T13:59:03;28.28;67.20
67799;SHT30;54596;43.216;27.904;2023-07-31T14:01:45;28.18;67.04
67799;SHT30;54596;43.216;27.904;2023-07-31T14:04:11;28.18;67.15
67799;SHT30;54596;43.216;27.904;2023-07-31T14:06:37;28.10;67.42
67799;SHT30;54596;43.216;27.904;2023-07-31T14:09:02;28.10;67.72
67799;SHT30;54596;43.216;27.904;2023-07-31T14:11:28;28.13;67.43
67799;SHT30;54596;43.216;27.904;2023-07-31T14:13:54;27.95;68.08
67799;SHT30;54596;43.216;27.904;2023-07-31T14:16:21;27.89;68.40
67799;SHT30;54596;43.216;27.904;2023-07-31T14:18:47;27.73;68.61
67799;SHT30;54596;43.216;27.904;2023-07-31T14:21:12;27.78;68.22
67799;SHT30;54596;43.216;27.904;2023-07-31T14:23:38;27.81;68.19
67799;SHT30;54596;43.216;27.904;2023-07-31T14:26:03;27.89;68.39
67799;SHT30;54596;43.216;27.904;2023-07-31T14:28:29;27.75;68.54
67799;SHT30;54596;43.216;27.904;2023-07-31T14:30:55;27.96;68.62
67799;SHT30;54596;43.216;27.904;2023-07-31T14:33:20;28.06;68.72
67799;SHT30;54596;43.216;27.904;2023-07-31T14:35:49;28.16;68.56
67799;SHT30;54596;43.216;27.904;2023-07-31T14:38:14;28.05;68.68
67799;SHT30;54596;43.216;27.904;2023-07-31T14:40:40;28.09;68.60
67799;SHT30;54596;43.216;27.904;2023-07-31T14:43:05;28.18;68.87
67799;SHT30;54596;43.216;27.904;2023-07-31T14:45:31;28.23;68.16
67799;SHT30;54596;43.216;27.904;2023-07-31T14:47:58;28.21;68.73
67799;SHT30;54596;43.216;27.904;2023-07-31T14:50:25;28.21;68.78
67799;SHT30;54596;43.216;27.904;2023-07-31T14:52:51;28.20;68.75
67799;SHT30;54596;43.216;27.904;2023-07-31T14:55:19;28.23;68.73
67799;SHT30;54596;43.216;27.904;2023-07-31T14:57:45;28.25;68.49
67799;SHT30;54596;43.216;27.904;2023-07-31T15:00:11;28.23;68.69
67799;SHT30;54596;43.216;27.904;2023-07-31T15:02:39;28.21;68.34
67799;SHT30;54596;43.216;27.904;2023-07-31T15:05:06;28.23;68.13
67799;SHT30;54596;43.216;27.904;2023-07-31T15:07:34;28.14;68.64
67799;SHT30;54596;43.216;27.904;2023-07-31T15:10:02;28.13;68.75
67799;SHT30;54596;43.216;27.904;2023-07-31T15:12:28;28.09;68.75
67799;SHT30;54596;43.216;27.904;2023-07-31T15:14:54;28.05;68.48